sensor_id;sensor_type;location;lat;lon;timestamp;pressure;altitude;pressure_sealevel;temperature;humidity
76011;BME280;64701;43.536;1.478;2023-09-18T00:00:10;99030.50;;;21.17;100.00
76011;BME280;64701;43.536;1.478;2023-09-18T00:02:37;99044.78;;;21.18;100.00
76011;BME280;64701;43.536;1.478;2023-09-18T00:05:03;99040.47;;;21.17;100.00
76011;BME280;64701;43.536;1.478;2023-09-18T00:07:29;99045.31;;;21.20;100.00
76011;BME280;64701;43.536;1.478;2023-09-18T00:09:54;99039.13;;;21.20;100.00
76011;BME280;64701;43.536;1.478;2023-09-18T00:12:19;99038.88;;;21.21;100.00
76011;BME280;64701;43.536;1.478;2023-09-18T00:14:47;99046.94;;;21.21;100.00
76011;BME280;64701;43.536;1.478;2023-09-18T00:17:12;99046.94;;;21.16;100.00
76011;BME280;64701;43.536;1.478;2023-09-18T00:19:38;99044.25;;;21.16;100.00
76011;BME280;64701;43.536;1.478;2023-09-18T00:22:03;99042.88;;;21.13;100.00
76011;BME280;64701;43.536;1.478;2023-09-18T00:24:28;99047.47;;;21.13;100.00
76011;BME280;64701;43.536;1.478;2023-09-18T00:26:54;99047.19;;;21.09;100.00
76011;BME280;64701;43.536;1.478;2023-09-18T00:29:19;99051.78;;;21.09;100.00
76011;BME280;64701;43.536;1.478;2023-09-18T00:31:44;99048.28;;;21.08;100.00
76011;BME280;64701;43.536;1.478;2023-09-18T00:34:10;99052.84;;;21.08;100.00
76011;BME280;64701;43.536;1.478;2023-09-18T00:36:35;99057.16;;;21.09;100.00
76011;BME280;64701;43.536;1.478;2023-09-18T00:39:00;99063.06;;;21.11;100.00
76011;BME280;64701;43.536;1.478;2023-09-18T00:41:25;99058.50;;;21.11;100.00
76011;BME280;64701;43.536;1.478;2023-09-18T00:43:51;99061.50;;;21.15;100.00
76011;BME280;64701;43.536;1.478;2023-09-18T00:46:16;99056.34;;;21.13;100.00
76011;BME280;64701;43.536;1.478;2023-09-18T00:48:41;99052.28;;;21.11;100.00
76011;BME280;64701;43.536;1.478;2023-09-18T00:51:08;99060.94;;;21.03;100.00
76011;BME280;64701;43.536;1.478;2023-09-18T00:53:33;99066.59;;;21.01;100.00
76011;BME280;64701;43.536;1.478;2023-09-18T00:55:59;99068.47;;;21.01;100.00
76011;BME280;64701;43.536;1.478;2023-09-18T00:58:25;99063.91;;;21.01;100.00
76011;BME280;64701;43.536;1.478;2023-09-18T01:00:51;99059.03;;;21.03;100.00
76011;BME280;64701;43.536;1.478;2023-09-18T01:03:16;99059.56;;;21.05;100.00
76011;BME280;64701;43.536;1.478;2023-09-18T01:05:43;99055.00;;;21.06;100.00
76011;BME280;64701;43.536;1.478;2023-09-18T01:08:09;99047.19;;;21.04;100.00
76011;BME280;64701;43.536;1.478;2023-09-18T01:10:36;99044.78;;;21.03;100.00
76011;BME280;64701;43.536;1.478;2023-09-18T01:13:05;99037.78;;;21.02;100.00
76011;BME280;64701;43.536;1.478;2023-09-18T01:15:40;99048.56;;;21.02;100.00
76011;BME280;64701;43.536;1.478;2023-09-18T01:18:10;99050.19;;;21.03;100.00
76011;BME280;64701;43.536;1.478;2023-09-18T01:20:35;99047.19;;;21.04;100.00
76011;BME280;64701;43.536;1.478;2023-09-18T01:23:01;99046.38;;;21.04;100.00
76011;BME280;64701;43.536;1.478;2023-09-18T01:25:26;99045.84;;;21.02;100.00
76011;BME280;64701;43.536;1.478;2023-09-18T01:27:51;99045.56;;;20.98;100.00
76011;BME280;64701;43.536;1.478;2023-09-18T01:30:17;99043.44;;;20.95;100.00
76011;BME280;64701;43.536;1.478;2023-09-18T01:32:42;99039.41;;;20.93;100.00
76011;BME280;64701;43.536;1.478;2023-09-18T01:35:08;99048.03;;;20.90;100.00
76011;BME280;64701;43.536;1.478;2023-09-18T01:37:34;99059.06;;;20.88;100.00
76011;BME280;64701;43.536;1.478;2023-09-18T01:40:01;99045.59;;;20.88;100.00
76011;BME280;64701;43.536;1.478;2023-09-18T01:42:27;99036.16;;;20.86;100.00
76011;BME280;64701;43.536;1.478;2023-09-18T01:44:53;99054.50;;;20.78;100.00
76011;BME280;64701;43.536;1.478;2023-09-18T01:47:19;99057.69;;;20.75;100.00
76011;BME280;64701;43.536;1.478;2023-09-18T01:49:46;99060.13;;;20.72;100.00
76011;BME280;64701;43.536;1.478;2023-09-18T01:52:11;99060.41;;;20.75;100.00
76011;BME280;64701;43.536;1.478;2023-09-18T01:54:36;99056.38;;;20.78;100.00
76011;BME280;64701;43.536;1.478;2023-09-18T01:57:02;99052.59;;;20.74;100.00
76011;BME280;64701;43.536;1.478;2023-09-18T01:59:28;99042.91;;;20.73;100.00
76011;BME280;64701;43.536;1.478;2023-09-18T02:01:53;99046.13;;;20.75;100.00
76011;BME280;64701;43.536;1.478;2023-09-18T02:04:19;99042.63;;;20.74;100.00
76011;BME280;64701;43.536;1.478;2023-09-18T02:06:45;99037.78;;;20.76;100.00
76011;BME280;64701;43.536;1.478;2023-09-18T02:09:11;99038.59;;;20.77;100.00
76011;BME280;64701;43.536;1.478;2023-09-18T02:11:37;99028.09;;;20.75;100.00
76011;BME280;64701;43.536;1.478;2023-09-18T02:14:03;99022.72;;;20.75;100.00
76011;BME280;64701;43.536;1.478;2023-09-18T02:16:29;99023.28;;;20.72;100.00
76011;BME280;64701;43.536;1.478;2023-09-18T02:18:54;99032.41;;;20.71;100.00
76011;BME280;64701;43.536;1.478;2023-09-18T02:21:21;99021.66;;;20.71;100.00
76011;BME280;64701;43.536;1.478;2023-09-18T02:23:52;99027.31;;;20.70;100.00
76011;BME280;64701;43.536;1.478;2023-09-18T02:26:18;99025.69;;;20.69;100.00
76011;BME280;64701;43.536;1.478;2023-09-18T02:28:44;99031.34;;;20.67;100.00
76011;BME280;64701;43.536;1.478;2023-09-18T02:31:09;99026.50;;;20.64;100.00
76011;BME280;64701;43.536;1.478;2023-09-18T02:33:34;99034.03;;;20.62;100.00
76011;BME280;64701;43.536;1.478;2023-09-18T02:36:00;99031.34;;;20.57;100.00
76011;BME280;64701;43.536;1.478;2023-09-18T02:38:25;99027.84;;;20.52;100.00
76011;BME280;64701;43.536;1.478;2023-09-18T02:40:51;99022.72;;;20.45;100.00
76011;BME280;64701;43.536;1.478;2023-09-18T02:43:18;99012.50;;;20.42;100.00
76011;BME280;64701;43.536;1.478;2023-09-18T02:45:43;99016.00;;;20.43;100.00
76011;BME280;64701;43.536;1.478;2023-09-18T02:48:09;99014.66;;;20.40;100.00
76011;BME280;64701;43.536;1.478;2023-09-18T02:50:35;99011.97;;;20.40;100.00
76011;BME280;64701;43.536;1.478;2023-09-18T02:53:00;99013.56;;;20.36;100.00
76011;BME280;64701;43.536;1.478;2023-09-18T02:55:25;99006.53;;;20.30;100.00
76011;BME280;64701;43.536;1.478;2023-09-18T02:57:51;99007.06;;;20.22;100.00
76011;BME280;64701;43.536;1.478;2023-09-18T03:00:16;99007.63;;;20.19;100.00
76011;BME280;64701;43.536;1.478;2023-09-18T03:02:42;99010.56;;;20.17;100.00
76011;BME280;64701;43.536;1.478;2023-09-18T03:05:07;99019.69;;;20.16;100.00
76011;BME280;64701;43.536;1.478;2023-09-18T03:07:33;99017.56;;;20.13;100.00
76011;BME280;64701;43.536;1.478;2023-09-18T03:09:59;99010.00;;;20.10;100.00
76011;BME280;64701;43.536;1.478;2023-09-18T03:12:24;99025.84;;;20.02;100.00
76011;BME280;64701;43.536;1.478;2023-09-18T03:14:49;99024.22;;;20.01;100.00
76011;BME280;64701;43.536;1.478;2023-09-18T03:17:14;99023.44;;;20.00;100.00
76011;BME280;64701;43.536;1.478;2023-09-18T03:19:40;99015.06;;;19.96;100.00
76011;BME280;64701;43.536;1.478;2023-09-18T03:22:05;99017.78;;;20.02;100.00
76011;BME280;64701;43.536;1.478;2023-09-18T03:24:30;99016.44;;;20.04;100.00
76011;BME280;64701;43.536;1.478;2023-09-18T03:26:56;99010.53;;;20.07;100.00
76011;BME280;64701;43.536;1.478;2023-09-18T03:29:21;99017.50;;;20.08;100.00
76011;BME280;64701;43.536;1.478;2023-09-18T03:31:47;99015.94;;;20.07;100.00
76011;BME280;64701;43.536;1.478;2023-09-18T03:34:12;99026.38;;;20.04;100.00
76011;BME280;64701;43.536;1.478;2023-09-18T03:36:38;99017.25;;;20.05;100.00
76011;BME280;64701;43.536;1.478;2023-09-18T03:39:04;99010.81;;;20.06;100.00
76011;BME280;64701;43.536;1.478;2023-09-18T03:41:30;99013.50;;;20.06;100.00
76011;BME280;64701;43.536;1.478;2023-09-18T03:43:59;99014.81;;;20.08;100.00
76011;BME280;64701;43.536;1.478;2023-09-18T03:46:24;99010.81;;;20.11;100.00
76011;BME280;64701;43.536;1.478;2023-09-18T03:48:49;99003.31;;;20.13;100.00
76011;BME280;64701;43.536;1.478;2023-09-18T03:51:15;99011.88;;;20.15;100.00
76011;BME280;64701;43.536;1.478;2023-09-18T03:53:40;99004.91;;;20.14;100.00
76011;BME280;64701;43.536;1.478;2023-09-18T03:56:06;99007.06;;;20.12;100.00
76011;BME280;64701;43.536;1.478;2023-09-18T03:58:31;99002.75;;;20.06;100.00
76011;BME280;64701;43.536;1.478;2023-09-18T04:00:56;98987.69;;;20.05;100.00
76011;BME280;64701;43.536;1.478;2023-09-18T04:03:22;98976.38;;;20.03;100.00
76011;BME280;64701;43.536;1.478;2023-09-18T04:05:47;98985.50;;;19.96;100.00
76011;BME280;64701;43.536;1.478;2023-09-18T04:08:12;98987.66;;;19.94;100.00
76011;BME280;64701;43.536;1.478;2023-09-18T04:10:38;98998.13;;;19.91;100.00
76011;BME280;64701;43.536;1.478;2023-09-18T04:13:03;99001.38;;;19.93;100.00
76011;BME280;64701;43.536;1.478;2023-09-18T04:15:29;99005.38;;;19.90;100.00
76011;BME280;64701;43.536;1.478;2023-09-18T04:17:55;99009.16;;;19.89;100.00
76011;BME280;64701;43.536;1.478;2023-09-18T04:20:21;99015.84;;;19.87;100.00
76011;BME280;64701;43.536;1.478;2023-09-18T04:22:47;99010.22;;;19.83;100.00
76011;BME280;64701;43.536;1.478;2023-09-18T04:25:15;99020.66;;;19.80;100.00
76011;BME280;64701;43.536;1.478;2023-09-18T04:27:41;99014.47;;;19.79;100.00
76011;BME280;64701;43.536;1.478;2023-09-18T04:30:07;99023.34;;;19.80;100.00
76011;BME280;64701;43.536;1.478;2023-09-18T04:32:35;99021.22;;;19.82;100.00
76011;BME280;64701;43.536;1.478;2023-09-18T04:35:00;99019.34;;;19.82;100.00
76011;BME280;64701;43.536;1.478;2023-09-18T04:37:25;99024.19;;;19.85;100.00
76011;BME280;64701;43.536;1.478;2023-09-18T04:39:51;99019.34;;;19.87;100.00
76011;BME280;64701;43.536;1.478;2023-09-18T04:42:16;99019.91;;;19.89;100.00
76011;BME280;64701;43.536;1.478;2023-09-18T04:44:42;99027.41;;;19.87;100.00
76011;BME280;64701;43.536;1.478;2023-09-18T04:47:07;99018.81;;;19.85;100.00
76011;BME280;64701;43.536;1.478;2023-09-18T04:49:32;99021.22;;;19.87;100.00
76011;BME280;64701;43.536;1.478;2023-09-18T04:51:58;99014.53;;;19.89;100.00
76011;BME280;64701;43.536;1.478;2023-09-18T04:54:23;99010.47;;;19.87;100.00
76011;BME280;64701;43.536;1.478;2023-09-18T04:56:48;99009.66;;;19.86;100.00
76011;BME280;64701;43.536;1.478;2023-09-18T04:59:14;99008.06;;;19.85;100.00
76011;BME280;64701;43.536;1.478;2023-09-18T05:01:39;99013.16;;;19.82;100.00
76011;BME280;64701;43.536;1.478;2023-09-18T05:04:05;99016.66;;;19.77;100.00
76011;BME280;64701;43.536;1.478;2023-09-18T05:06:30;99012.34;;;19.76;100.00
76011;BME280;64701;43.536;1.478;2023-09-18T05:08:55;99006.97;;;19.76;100.00
76011;BME280;64701;43.536;1.478;2023-09-18T05:11:22;99004.78;;;19.73;100.00
76011;BME280;64701;43.536;1.478;2023-09-18T05:13:47;99008.28;;;19.74;100.00
76011;BME280;64701;43.536;1.478;2023-09-18T05:16:12;99018.78;;;19.75;100.00
76011;BME280;64701;43.536;1.478;2023-09-18T05:18:38;99023.59;;;19.78;100.00
76011;BME280;64701;43.536;1.478;2023-09-18T05:21:03;99010.47;;;19.77;100.00
76011;BME280;64701;43.536;1.478;2023-09-18T05:23:30;99001.84;;;19.75;100.00
76011;BME280;64701;43.536;1.478;2023-09-18T05:25:55;99002.09;;;19.68;100.00
76011;BME280;64701;43.536;1.478;2023-09-18T05:28:20;98998.31;;;19.64;100.00
76011;BME280;64701;43.536;1.478;2023-09-18T05:30:46;99006.88;;;19.61;100.00
76011;BME280;64701;43.536;1.478;2023-09-18T05:33:11;99003.69;;;19.64;100.00
76011;BME280;64701;43.536;1.478;2023-09-18T05:35:41;99008.00;;;19.65;100.00
76011;BME280;64701;43.536;1.478;2023-09-18T05:38:07;99010.16;;;19.68;100.00
76011;BME280;64701;43.536;1.478;2023-09-18T05:40:33;99016.59;;;19.67;100.00
76011;BME280;64701;43.536;1.478;2023-09-18T05:42:58;99015.25;;;19.65;100.00
76011;BME280;64701;43.536;1.478;2023-09-18T05:45:24;99019.56;;;19.66;100.00
76011;BME280;64701;43.536;1.478;2023-09-18T05:47:51;99021.44;;;19.65;100.00
76011;BME280;64701;43.536;1.478;2023-09-18T05:50:18;99018.19;;;19.58;100.00
76011;BME280;64701;43.536;1.478;2023-09-18T05:52:44;99025.16;;;19.59;100.00
76011;BME280;64701;43.536;1.478;2023-09-18T05:55:09;99033.25;;;19.64;100.00
76011;BME280;64701;43.536;1.478;2023-09-18T05:57:35;99032.44;;;19.69;100.00
76011;BME280;64701;43.536;1.478;2023-09-18T06:00:01;99032.19;;;19.70;100.00
76011;BME280;64701;43.536;1.478;2023-09-18T06:02:26;99025.75;;;19.71;100.00
76011;BME280;64701;43.536;1.478;2023-09-18T06:04:55;99027.34;;;19.72;100.00
76011;BME280;64701;43.536;1.478;2023-09-18T06:07:25;99031.66;;;19.73;100.00
76011;BME280;64701;43.536;1.478;2023-09-18T06:09:51;99033.56;;;19.78;100.00
76011;BME280;64701;43.536;1.478;2023-09-18T06:12:16;99028.97;;;19.78;100.00
76011;BME280;64701;43.536;1.478;2023-09-18T06:14:41;99017.16;;;19.79;100.00
76011;BME280;64701;43.536;1.478;2023-09-18T06:17:07;99020.66;;;19.80;100.00
76011;BME280;64701;43.536;1.478;2023-09-18T06:19:32;99020.69;;;19.85;100.00
76011;BME280;64701;43.536;1.478;2023-09-18T06:21:59;99018.81;;;19.90;100.00
76011;BME280;64701;43.536;1.478;2023-09-18T06:24:24;99020.44;;;19.96;100.00
76011;BME280;64701;43.536;1.478;2023-09-18T06:26:49;99024.75;;;20.03;100.00
76011;BME280;64701;43.536;1.478;2023-09-18T06:29:16;99029.06;;;20.09;100.00
76011;BME280;64701;43.536;1.478;2023-09-18T06:31:41;99032.59;;;20.14;100.00
76011;BME280;64701;43.536;1.478;2023-09-18T06:34:06;99039.31;;;20.22;100.00
76011;BME280;64701;43.536;1.478;2023-09-18T06:36:31;99030.19;;;20.28;100.00
76011;BME280;64701;43.536;1.478;2023-09-18T06:38:57;99035.09;;;20.36;100.00
76011;BME280;64701;43.536;1.478;2023-09-18T06:41:23;99039.16;;;20.44;100.00
76011;BME280;64701;43.536;1.478;2023-09-18T06:43:48;99042.09;;;20.47;100.00
76011;BME280;64701;43.536;1.478;2023-09-18T06:46:13;99043.72;;;20.53;100.00
76011;BME280;64701;43.536;1.478;2023-09-18T06:48:39;99039.94;;;20.59;100.00
76011;BME280;64701;43.536;1.478;2023-09-18T06:51:04;99037.81;;;20.66;100.00
76011;BME280;64701;43.536;1.478;2023-09-18T06:53:31;99035.91;;;20.72;100.00
76011;BME280;64701;43.536;1.478;2023-09-18T06:55:56;99043.72;;;20.78;100.00
76011;BME280;64701;43.536;1.478;2023-09-18T06:58:22;99042.09;;;20.77;100.00
76011;BME280;64701;43.536;1.478;2023-09-18T07:00:47;99041.03;;;20.84;100.00
76011;BME280;64701;43.536;1.478;2023-09-18T07:03:15;99054.47;;;20.89;100.00
76011;BME280;64701;43.536;1.478;2023-09-18T07:05:41;99051.25;;;20.97;100.00
76011;BME280;64701;43.536;1.478;2023-09-18T07:08:07;99057.69;;;21.06;100.00
76011;BME280;64701;43.536;1.478;2023-09-18T07:10:36;99063.91;;;21.16;100.00
76011;BME280;64701;43.536;1.478;2023-09-18T07:13:02;99070.63;;;21.24;100.00
76011;BME280;64701;43.536;1.478;2023-09-18T07:15:27;99078.16;;;21.27;100.00
76011;BME280;64701;43.536;1.478;2023-09-18T07:17:53;99079.50;;;21.30;100.00
76011;BME280;64701;43.536;1.478;2023-09-18T07:20:18;99090.00;;;21.31;100.00
76011;BME280;64701;43.536;1.478;2023-09-18T07:22:47;99097.00;;;21.32;100.00
76011;BME280;64701;43.536;1.478;2023-09-18T07:25:12;99099.69;;;21.37;100.00
76011;BME280;64701;43.536;1.478;2023-09-18T07:27:38;99107.50;;;21.44;100.00
76011;BME280;64701;43.536;1.478;2023-09-18T07:30:09;99107.72;;;21.52;100.00
76011;BME280;64701;43.536;1.478;2023-09-18T07:32:35;99110.94;;;21.59;100.00
76011;BME280;64701;43.536;1.478;2023-09-18T07:35:00;99114.19;;;21.67;100.00
76011;BME280;64701;43.536;1.478;2023-09-18T07:37:26;99122.25;;;21.72;100.00
76011;BME280;64701;43.536;1.478;2023-09-18T07:39:51;99123.28;;;21.76;100.00
76011;BME280;64701;43.536;1.478;2023-09-18T07:42:16;99127.06;;;21.85;100.00
76011;BME280;64701;43.536;1.478;2023-09-18T07:44:41;99124.06;;;21.91;100.00
76011;BME280;64701;43.536;1.478;2023-09-18T07:47:07;99130.28;;;21.97;100.00
76011;BME280;64701;43.536;1.478;2023-09-18T07:49:33;99131.34;;;22.01;100.00
76011;BME280;64701;43.536;1.478;2023-09-18T07:51:58;99131.34;;;22.01;100.00
76011;BME280;64701;43.536;1.478;2023-09-18T07:54:23;99132.16;;;22.02;100.00
76011;BME280;64701;43.536;1.478;2023-09-18T07:56:49;99131.56;;;22.05;100.00
76011;BME280;64701;43.536;1.478;2023-09-18T07:59:14;99134.56;;;22.08;100.00
76011;BME280;64701;43.536;1.478;2023-09-18T08:01:40;99142.06;;;22.11;100.00
76011;BME280;64701;43.536;1.478;2023-09-18T08:04:06;99145.31;;;22.13;100.00
76011;BME280;64701;43.536;1.478;2023-09-18T08:06:31;99152.28;;;22.19;100.00
76011;BME280;64701;43.536;1.478;2023-09-18T08:08:56;99149.06;;;22.22;100.00
76011;BME280;64701;43.536;1.478;2023-09-18T08:11:22;99144.72;;;22.26;100.00
76011;BME280;64701;43.536;1.478;2023-09-18T08:13:47;99149.53;;;22.29;100.00
76011;BME280;64701;43.536;1.478;2023-09-18T08:16:12;99149.53;;;22.29;100.00
76011;BME280;64701;43.536;1.478;2023-09-18T08:18:39;99151.72;;;22.27;100.00
76011;BME280;64701;43.536;1.478;2023-09-18T08:21:06;99149.53;;;22.29;100.00
76011;BME280;64701;43.536;1.478;2023-09-18T08:23:31;99146.81;;;22.34;100.00
76011;BME280;64701;43.536;1.478;2023-09-18T08:25:57;99150.06;;;22.36;100.00
76011;BME280;64701;43.536;1.478;2023-09-18T08:28:23;99155.19;;;22.38;100.00
76011;BME280;64701;43.536;1.478;2023-09-18T08:30:48;99164.91;;;22.39;100.00
76011;BME280;64701;43.536;1.478;2023-09-18T08:33:14;99164.59;;;22.40;100.00
76011;BME280;64701;43.536;1.478;2023-09-18T08:35:39;99155.41;;;22.47;100.00
76011;BME280;64701;43.536;1.478;2023-09-18T08:38:05;99160.25;;;22.50;100.00
76011;BME280;64701;43.536;1.478;2023-09-18T08:40:30;99154.81;;;22.55;100.00
76011;BME280;64701;43.536;1.478;2023-09-18T08:42:59;99165.34;;;22.56;100.00
76011;BME280;64701;43.536;1.478;2023-09-18T08:45:27;99177.19;;;22.60;100.00
76011;BME280;64701;43.536;1.478;2023-09-18T08:47:56;99182.84;;;22.64;100.00
76011;BME280;64701;43.536;1.478;2023-09-18T08:50:22;99180.66;;;22.66;100.00
76011;BME280;64701;43.536;1.478;2023-09-18T08:52:48;99177.97;;;22.66;100.00
76011;BME280;64701;43.536;1.478;2023-09-18T08:55:14;99181.19;;;22.68;96.82
76011;BME280;64701;43.536;1.478;2023-09-18T08:57:39;99172.53;;;22.71;97.27
76011;BME280;64701;43.536;1.478;2023-09-18T09:00:07;99164.72;;;22.74;97.72
76011;BME280;64701;43.536;1.478;2023-09-18T09:02:33;99178.47;;;22.78;96.51
76011;BME280;64701;43.536;1.478;2023-09-18T09:04:59;99180.59;;;22.86;96.87
76011;BME280;64701;43.536;1.478;2023-09-18T09:07:25;99187.56;;;22.92;94.46
76011;BME280;64701;43.536;1.478;2023-09-18T09:09:50;99186.94;;;23.00;91.36
76011;BME280;64701;43.536;1.478;2023-09-18T09:12:15;99184.75;;;23.07;90.44
76011;BME280;64701;43.536;1.478;2023-09-18T09:14:43;99188.97;;;23.18;91.19
76011;BME280;64701;43.536;1.478;2023-09-18T09:17:26;99190.56;;;23.25;85.19
76011;BME280;64701;43.536;1.478;2023-09-18T09:19:51;99196.41;;;23.37;89.83
76011;BME280;64701;43.536;1.478;2023-09-18T09:22:32;99185.56;;;23.47;88.42
76011;BME280;64701;43.536;1.478;2023-09-18T09:24:59;99192.47;;;23.58;89.41
76011;BME280;64701;43.536;1.478;2023-09-18T09:27:24;99197.50;;;23.70;88.35
76011;BME280;64701;43.536;1.478;2023-09-18T09:29:59;99197.91;;;23.82;88.99
76011;BME280;64701;43.536;1.478;2023-09-18T09:32:24;99194.22;;;23.96;90.16
76011;BME280;64701;43.536;1.478;2023-09-18T09:34:56;99189.88;;;24.00;85.07
76011;BME280;64701;43.536;1.478;2023-09-18T09:37:27;99192.69;;;24.14;81.55
76011;BME280;64701;43.536;1.478;2023-09-18T09:39:54;99204.47;;;24.28;82.39
76011;BME280;64701;43.536;1.478;2023-09-18T09:42:20;99211.06;;;24.41;85.76
76011;BME280;64701;43.536;1.478;2023-09-18T09:45:01;99219.06;;;24.51;81.37
76011;BME280;64701;43.536;1.478;2023-09-18T09:47:27;99207.44;;;24.69;83.29
76011;BME280;64701;43.536;1.478;2023-09-18T09:49:55;99219.19;;;24.84;82.54
76011;BME280;64701;43.536;1.478;2023-09-18T09:52:20;99217.59;;;25.01;83.36
76011;BME280;64701;43.536;1.478;2023-09-18T09:54:48;99219.19;;;25.21;81.72
76011;BME280;64701;43.536;1.478;2023-09-18T09:57:14;99219.25;;;25.35;73.95
76011;BME280;64701;43.536;1.478;2023-09-18T09:59:39;99219.22;;;25.53;74.49
76011;BME280;64701;43.536;1.478;2023-09-18T10:02:10;99223.00;;;25.71;75.34
76011;BME280;64701;43.536;1.478;2023-09-18T10:04:37;99226.03;;;25.83;68.47
76011;BME280;64701;43.536;1.478;2023-09-18T10:07:06;99231.09;;;26.04;74.10
76011;BME280;64701;43.536;1.478;2023-09-18T10:09:32;99235.44;;;26.18;71.18
76011;BME280;64701;43.536;1.478;2023-09-18T10:12:00;99226.91;;;26.38;71.35
76011;BME280;64701;43.536;1.478;2023-09-18T10:14:29;99222.78;;;26.55;65.83
76011;BME280;64701;43.536;1.478;2023-09-18T10:16:56;99234.72;;;26.81;69.09
76011;BME280;64701;43.536;1.478;2023-09-18T10:19:33;99239.44;;;26.89;64.60
76011;BME280;64701;43.536;1.478;2023-09-18T10:22:06;99245.53;;;27.08;66.02
76011;BME280;64701;43.536;1.478;2023-09-18T10:24:39;99242.22;;;27.34;64.21
76011;BME280;64701;43.536;1.478;2023-09-18T10:27:06;99246.59;;;27.57;65.24
76011;BME280;64701;43.536;1.478;2023-09-18T10:29:34;99243.41;;;27.86;61.02
76011;BME280;64701;43.536;1.478;2023-09-18T10:32:01;99260.63;;;28.03;59.33
76011;BME280;64701;43.536;1.478;2023-09-18T10:34:27;99257.25;;;28.29;58.03
76011;BME280;64701;43.536;1.478;2023-09-18T10:36:55;99247.88;;;28.61;55.37
76011;BME280;64701;43.536;1.478;2023-09-18T10:39:20;99260.81;;;28.95;58.52
76011;BME280;64701;43.536;1.478;2023-09-18T10:41:51;99242.72;;;29.33;53.46
76011;BME280;64701;43.536;1.478;2023-09-18T10:44:16;99251.97;;;29.84;57.30
76011;BME280;64701;43.536;1.478;2023-09-18T10:46:45;99258.44;;;30.26;52.74
76011;BME280;64701;43.536;1.478;2023-09-18T10:49:10;99251.53;;;30.58;52.31
76011;BME280;64701;43.536;1.478;2023-09-18T10:51:37;99264.16;;;30.71;46.73
76011;BME280;64701;43.536;1.478;2023-09-18T10:54:06;99255.94;;;31.00;46.34
76011;BME280;64701;43.536;1.478;2023-09-18T10:56:32;99257.81;;;31.29;45.29
76011;BME280;64701;43.536;1.478;2023-09-18T10:58:58;99260.81;;;31.90;46.81
76011;BME280;64701;43.536;1.478;2023-09-18T11:01:24;99255.31;;;32.59;47.01
76011;BME280;64701;43.536;1.478;2023-09-18T11:03:52;99242.19;;;33.29;48.66
76011;BME280;64701;43.536;1.478;2023-09-18T11:06:17;99245.41;;;33.75;43.86
76011;BME280;64701;43.536;1.478;2023-09-18T11:08:48;99245.84;;;34.20;45.27
76011;BME280;64701;43.536;1.478;2023-09-18T11:11:17;99241.19;;;34.40;38.75
76011;BME280;64701;43.536;1.478;2023-09-18T11:13:45;99243.75;;;34.99;39.17
76011;BME280;64701;43.536;1.478;2023-09-18T11:16:16;99228.75;;;35.32;35.53
76011;BME280;64701;43.536;1.478;2023-09-18T11:18:42;99235.09;;;35.74;35.93
76011;BME280;64701;43.536;1.478;2023-09-18T11:21:11;99239.47;;;36.21;34.55
76011;BME280;64701;43.536;1.478;2023-09-18T11:23:37;99229.41;;;36.58;30.88
76011;BME280;64701;43.536;1.478;2023-09-18T11:26:03;99228.09;;;37.05;30.83
76011;BME280;64701;43.536;1.478;2023-09-18T11:28:29;99234.75;;;37.30;30.75
76011;BME280;64701;43.536;1.478;2023-09-18T11:30:57;99240.38;;;37.71;33.03
76011;BME280;64701;43.536;1.478;2023-09-18T11:33:35;99238.34;;;38.08;32.70
76011;BME280;64701;43.536;1.478;2023-09-18T11:38:39;99232.53;;;38.75;31.88
76011;BME280;64701;43.536;1.478;2023-09-18T11:41:22;99232.59;;;38.86;29.70
76011;BME280;64701;43.536;1.478;2023-09-18T11:43:48;99222.50;;;39.22;29.30
76011;BME280;64701;43.536;1.478;2023-09-18T11:46:17;99222.91;;;39.27;27.78
76011;BME280;64701;43.536;1.478;2023-09-18T11:48:43;99221.06;;;39.70;27.87
76011;BME280;64701;43.536;1.478;2023-09-18T11:51:08;99214.78;;;39.87;28.07
76011;BME280;64701;43.536;1.478;2023-09-18T11:53:36;99213.63;;;40.10;28.53
76011;BME280;64701;43.536;1.478;2023-09-18T11:56:09;99219.56;;;40.08;23.75
76011;BME280;64701;43.536;1.478;2023-09-18T11:58:49;99217.16;;;40.21;26.31
76011;BME280;64701;43.536;1.478;2023-09-18T12:01:14;99209.25;;;40.44;25.33
76011;BME280;64701;43.536;1.478;2023-09-18T12:03:40;99213.22;;;40.40;26.37
76011;BME280;64701;43.536;1.478;2023-09-18T12:06:06;99211.59;;;40.56;25.66
76011;BME280;64701;43.536;1.478;2023-09-18T12:08:33;99211.63;;;40.42;21.13
76011;BME280;64701;43.536;1.478;2023-09-18T12:10:59;99206.06;;;40.42;24.93
76011;BME280;64701;43.536;1.478;2023-09-18T12:13:25;99200.88;;;40.72;24.97
76011;BME280;64701;43.536;1.478;2023-09-18T12:15:56;99204.66;;;41.21;24.85
76011;BME280;64701;43.536;1.478;2023-09-18T12:18:21;99196.97;;;41.50;24.45
76011;BME280;64701;43.536;1.478;2023-09-18T12:20:48;99197.41;;;42.04;22.38
76011;BME280;64701;43.536;1.478;2023-09-18T12:23:14;99195.97;;;42.29;22.98
76011;BME280;64701;43.536;1.478;2023-09-18T12:25:40;99196.78;;;42.71;22.84
76011;BME280;64701;43.536;1.478;2023-09-18T12:28:06;99202.94;;;42.52;21.03
76011;BME280;64701;43.536;1.478;2023-09-18T12:30:31;99204.22;;;42.81;21.80
76011;BME280;64701;43.536;1.478;2023-09-18T12:32:57;99193.47;;;42.83;20.07
76011;BME280;64701;43.536;1.478;2023-09-18T12:35:25;99195.25;;;42.63;22.28
76011;BME280;64701;43.536;1.478;2023-09-18T12:37:54;99200.63;;;41.99;23.04
76011;BME280;64701;43.536;1.478;2023-09-18T12:40:23;99199.03;;;41.35;22.03
76011;BME280;64701;43.536;1.478;2023-09-18T12:42:49;99202.91;;;40.40;24.27
76011;BME280;64701;43.536;1.478;2023-09-18T12:45:15;99206.00;;;39.50;23.19
76011;BME280;64701;43.536;1.478;2023-09-18T12:47:40;99201.66;;;38.69;26.22
76011;BME280;64701;43.536;1.478;2023-09-18T12:50:06;99202.28;;;37.94;26.17